Time;durP1;ratioP1;P1;durP2;ratioP2;P2;SDS_P1;SDS_P2;PMS_P1;PMS_P2;Temp;Humidity;BMP_temperature;BMP_pressure;BME280_temperature;BME280_humidity;BME280_pressure;Samples;Min_cycle;Max_cycle;Signal;HPM_P1;HPM_P2
2023/06/03 00:00:20;;;;;;;9.90;2.10;;;;;;;;;;4991145;28;20050;-72
2023/06/03 00:02:47;;;;;;;17.05;2.13;;;;;;;;;;4993827;28;20069;-73
2023/06/03 00:05:18;;;;;;;7.88;2.55;;;;;;;;;;4993673;28;20046;-72
2023/06/03 00:07:44;;;;;;;8.23;2.25;;;;;;;;;;4993976;28;20038;-72
2023/06/03 00:10:09;;;;;;;11.23;2.65;;;;;;;;;;4992937;28;20054;-73
2023/06/03 00:12:35;;;;;;;13.00;2.83;;;;;;;;;;4993671;28;20030;-72
2023/06/03 00:15:00;;;;;;;16.67;3.17;;;;;;;;;;4984331;28;20134;-72
2023/06/03 00:17:27;;;;;;;12.13;2.72;;;;;;;;;;4993570;28;20049;-72
2023/06/03 00:19:53;;;;;;;15.02;3.45;;;;;;;;;;4989699;28;20405;-72
2023/06/03 00:22:18;;;;;;;14.20;3.13;;;;;;;;;;4992559;28;20121;-72
2023/06/03 00:24:44;;;;;;;8.25;2.70;;;;;;;;;;4993806;28;20045;-72
2023/06/03 00:27:09;;;;;;;11.00;2.80;;;;;;;;;;4993304;28;20410;-72
2023/06/03 00:29:34;;;;;;;11.50;2.60;;;;;;;;;;4993707;28;20048;-72
2023/06/03 00:32:00;;;;;;;18.10;3.03;;;;;;;;;;4993413;28;20074;-72
2023/06/03 00:34:25;;;;;;;12.38;2.72;;;;;;;;;;4993334;28;20038;-72
2023/06/03 00:36:51;;;;;;;22.75;2.88;;;;;;;;;;4993724;28;20053;-72
2023/06/03 00:39:16;;;;;;;12.80;3.33;;;;;;;;;;4990431;28;20413;-72
2023/06/03 00:41:41;;;;;;;22.98;3.22;;;;;;;;;;4993411;28;20038;-72
2023/06/03 00:44:07;;;;;;;8.38;3.22;;;;;;;;;;4993832;28;20034;-72
2023/06/03 00:46:34;;;;;;;19.92;3.05;;;;;;;;;;4993408;28;20042;-72
2023/06/03 00:49:00;;;;;;;14.05;3.17;;;;;;;;;;4993693;28;20040;-72
2023/06/03 00:51:26;;;;;;;7.90;3.40;;;;;;;;;;4992191;28;20042;-72
2023/06/03 00:53:51;;;;;;;12.50;2.30;;;;;;;;;;4993788;28;20054;-72
2023/06/03 00:56:17;;;;;;;14.10;3.15;;;;;;;;;;4988903;28;20038;-72
2023/06/03 00:58:42;;;;;;;11.70;2.92;;;;;;;;;;4989558;28;20046;-72
2023/06/03 01:01:08;;;;;;;10.93;2.83;;;;;;;;;;4992191;28;20066;-72
2023/06/03 01:03:36;;;;;;;12.25;3.47;;;;;;;;;;4993250;28;20034;-72
2023/06/03 01:06:32;;;;;;;3.55;2.03;;;;;;;;;;4993257;28;20035;-72
2023/06/03 01:09:04;;;;;;;7.60;2.80;;;;;;;;;;4993349;28;20117;-72
2023/06/03 01:11:48;;;;;;;20.55;4.07;;;;;;;;;;4991470;28;20490;-72
2023/06/03 01:14:25;;;;;;;12.23;2.38;;;;;;;;;;4993362;28;20084;-72
2023/06/03 01:16:51;;;;;;;8.50;2.55;;;;;;;;;;4991667;28;20069;-72
2023/06/03 01:19:36;;;;;;;13.75;2.67;;;;;;;;;;4975982;28;20050;-72
2023/06/03 01:22:02;;;;;;;9.13;2.72;;;;;;;;;;4993140;28;20057;-72
2023/06/03 01:24:30;;;;;;;17.60;2.90;;;;;;;;;;4992103;28;20038;-72
2023/06/03 01:26:56;;;;;;;7.32;2.70;;;;;;;;;;4991866;28;20602;-72
2023/06/03 01:29:21;;;;;;;12.32;2.88;;;;;;;;;;4996304;28;20054;-72
2023/06/03 01:31:47;;;;;;;15.50;3.70;;;;;;;;;;4995790;28;20394;-72
2023/06/03 01:34:13;;;;;;;8.02;2.78;;;;;;;;;;4995622;28;20485;-72
2023/06/03 01:36:38;;;;;;;16.17;3.53;;;;;;;;;;4995723;28;20070;-72
2023/06/03 01:39:03;;;;;;;13.90;3.28;;;;;;;;;;4995489;28;20041;-72
2023/06/03 01:41:31;;;;;;;12.35;3.30;;;;;;;;;;4995461;28;20422;-72
2023/06/03 01:43:57;;;;;;;19.48;2.85;;;;;;;;;;4996937;28;20042;-72
2023/06/03 01:46:22;;;;;;;14.18;3.25;;;;;;;;;;4991092;28;20061;-72
2023/06/03 01:48:48;;;;;;;10.93;2.95;;;;;;;;;;4995433;28;20482;-72
2023/06/03 01:51:13;;;;;;;14.38;2.92;;;;;;;;;;4995427;28;20038;-72
2023/06/03 01:53:38;;;;;;;15.13;4.03;;;;;;;;;;4996736;28;20112;-72
2023/06/03 01:56:04;;;;;;;7.93;2.85;;;;;;;;;;4996337;28;20037;-72
2023/06/03 01:58:30;;;;;;;11.73;2.40;;;;;;;;;;4996258;28;20371;-72
2023/06/03 02:00:56;;;;;;;10.77;2.80;;;;;;;;;;4996063;28;20033;-72
2023/06/03 02:03:21;;;;;;;10.40;2.97;;;;;;;;;;4996025;28;20056;-72
2023/06/03 02:05:47;;;;;;;10.27;3.22;;;;;;;;;;4995817;28;20034;-72
2023/06/03 02:08:12;;;;;;;12.77;2.70;;;;;;;;;;4996061;28;20479;-72
2023/06/03 02:10:37;;;;;;;14.07;3.00;;;;;;;;;;4995976;28;20033;-72
2023/06/03 02:13:03;;;;;;;15.23;3.35;;;;;;;;;;4995123;28;20034;-73
2023/06/03 02:15:28;;;;;;;8.57;2.75;;;;;;;;;;4996217;28;20039;-72
2023/06/03 02:17:55;;;;;;;9.30;2.67;;;;;;;;;;4995030;28;20430;-72
2023/06/03 02:20:21;;;;;;;14.85;3.20;;;;;;;;;;4994935;28;20391;-72
2023/06/03 02:22:47;;;;;;;17.75;3.47;;;;;;;;;;4995963;28;20200;-72
2023/06/03 02:25:13;;;;;;;22.80;3.47;;;;;;;;;;4995913;28;20529;-72
2023/06/03 02:27:38;;;;;;;14.43;3.03;;;;;;;;;;4995856;28;20030;-72
2023/06/03 02:30:05;;;;;;;7.45;2.38;;;;;;;;;;4996025;28;20069;-72
2023/06/03 02:32:30;;;;;;;19.05;3.30;;;;;;;;;;4995076;28;20525;-72
2023/06/03 02:34:55;;;;;;;5.45;2.13;;;;;;;;;;4995896;28;20035;-72
2023/06/03 02:37:22;;;;;;;12.82;2.58;;;;;;;;;;4995595;28;20045;-72
2023/06/03 02:39:47;;;;;;;15.30;3.45;;;;;;;;;;4993284;28;20034;-72
2023/06/03 02:42:13;;;;;;;18.20;3.53;;;;;;;;;;4993402;28;20033;-72
2023/06/03 02:44:38;;;;;;;8.80;2.80;;;;;;;;;;4995670;28;20182;-72
2023/06/03 02:47:04;;;;;;;9.57;2.90;;;;;;;;;;4994205;28;20041;-72
2023/06/03 02:49:29;;;;;;;7.22;2.28;;;;;;;;;;4995327;28;20038;-72
2023/06/03 02:51:55;;;;;;;9.00;2.78;;;;;;;;;;4995466;28;20097;-72
2023/06/03 02:54:20;;;;;;;18.00;2.65;;;;;;;;;;4995284;28;20081;-72
2023/06/03 02:56:46;;;;;;;6.57;2.38;;;;;;;;;;4994258;28;20034;-72
2023/06/03 02:59:11;;;;;;;5.05;2.83;;;;;;;;;;4994903;28;20046;-72
2023/06/03 03:01:37;;;;;;;3.78;2.70;;;;;;;;;;4995429;28;20027;-72
2023/06/03 03:04:03;;;;;;;5.32;2.38;;;;;;;;;;4995077;28;20045;-72
2023/06/03 03:06:29;;;;;;;7.82;2.08;;;;;;;;;;4995221;28;20045;-72
2023/06/03 03:08:54;;;;;;;9.02;2.70;;;;;;;;;;4995048;28;20038;-72
2023/06/03 03:11:20;;;;;;;6.35;2.72;;;;;;;;;;4988051;28;20034;-72
2023/06/03 03:13:46;;;;;;;13.48;3.00;;;;;;;;;;5025063;28;20077;-72
2023/06/03 03:16:12;;;;;;;13.10;3.35;;;;;;;;;;4993761;28;20073;-73
2023/06/03 03:18:38;;;;;;;4.40;2.63;;;;;;;;;;4992630;28;20038;-73
2023/06/03 03:21:04;;;;;;;9.90;2.58;;;;;;;;;;5015426;28;20586;-72
2023/06/03 03:23:29;;;;;;;13.27;2.92;;;;;;;;;;4993848;28;20037;-74
2023/06/03 03:26:00;;;;;;;21.83;2.85;;;;;;;;;;4993819;28;20045;-72
2023/06/03 03:28:25;;;;;;;13.32;3.55;;;;;;;;;;4993661;28;20049;-72
2023/06/03 03:30:51;;;;;;;11.05;2.95;;;;;;;;;;4994629;28;20038;-72
2023/06/03 03:33:17;;;;;;;10.57;2.65;;;;;;;;;;4994947;28;20042;-72
2023/06/03 03:35:43;;;;;;;9.75;2.72;;;;;;;;;;4994290;28;20121;-72
2023/06/03 03:38:09;;;;;;;9.43;2.85;;;;;;;;;;4993682;28;20121;-72
2023/06/03 03:40:38;;;;;;;5.20;2.38;;;;;;;;;;4989193;28;20117;-72
2023/06/03 03:43:03;;;;;;;12.65;3.38;;;;;;;;;;4994236;28;20046;-72
2023/06/03 03:45:31;;;;;;;9.35;3.45;;;;;;;;;;4993242;28;20089;-72
2023/06/03 03:48:01;;;;;;;10.23;3.03;;;;;;;;;;4994610;28;20038;-72
2023/06/03 03:50:43;;;;;;;3.45;2.10;;;;;;;;;;4991503;28;20081;-72
2023/06/03 03:53:13;;;;;;;12.00;3.38;;;;;;;;;;5014099;28;20062;-72
2023/06/03 03:55:43;;;;;;;14.95;2.63;;;;;;;;;;4992926;28;20093;-72
2023/06/03 03:58:28;;;;;;;16.08;2.38;;;;;;;;;;4994172;28;20038;-72
2023/06/03 04:01:00;;;;;;;13.43;4.38;;;;;;;;;;4992851;28;20117;-72
2023/06/03 04:03:27;;;;;;;14.93;2.58;;;;;;;;;;4993038;28;20398;-72
2023/06/03 04:05:53;;;;;;;15.98;3.22;;;;;;;;;;4993827;28;20133;-72
2023/06/03 04:08:39;;;;;;;10.82;2.58;;;;;;;;;;4993563;28;20457;-72
2023/06/03 04:11:06;;;;;;;12.57;2.95;;;;;;;;;;4989151;28;20045;-72
2023/06/03 04:13:40;;;;;;;17.92;3.25;;;;;;;;;;4988313;28;20381;-72
2023/06/03 04:16:07;;;;;;;8.18;2.33;;;;;;;;;;4992713;28;20119;-72
2023/06/03 04:18:37;;;;;;;6.03;2.50;;;;;;;;;;4992554;28;20517;-72
2023/06/03 04:21:02;;;;;;;4.43;2.95;;;;;;;;;;4991748;28;20034;-72
2023/06/03 04:23:28;;;;;;;13.50;4.20;;;;;;;;;;4992823;28;20046;-72
2023/06/03 04:25:55;;;;;;;6.40;2.53;;;;;;;;;;4993730;28;20042;-72
2023/06/03 04:28:20;;;;;;;19.15;3.45;;;;;;;;;;4981701;28;20026;-72
2023/06/03 04:30:45;;;;;;;18.50;3.05;;;;;;;;;;4992383;28;20042;-72
2023/06/03 04:33:11;;;;;;;15.75;3.45;;;;;;;;;;4993983;28;20049;-72
2023/06/03 04:35:36;;;;;;;12.98;2.50;;;;;;;;;;4991533;28;20030;-72
2023/06/03 04:38:01;;;;;;;6.55;3.17;;;;;;;;;;4991949;28;20042;-72
2023/06/03 04:40:27;;;;;;;5.75;2.58;;;;;;;;;;4993449;28;20038;-73
2023/06/03 04:42:53;;;;;;;9.40;3.63;;;;;;;;;;4992489;28;20038;-74
2023/06/03 04:45:21;;;;;;;16.50;3.60;;;;;;;;;;4993892;28;20125;-72
2023/06/03 04:47:47;;;;;;;3.80;2.53;;;;;;;;;;4992111;28;20048;-72
2023/06/03 04:50:20;;;;;;;10.32;2.40;;;;;;;;;;4992591;28;20050;-73
2023/06/03 04:52:47;;;;;;;8.57;2.92;;;;;;;;;;4992131;28;20478;-72
2023/06/03 04:55:13;;;;;;;4.88;1.90;;;;;;;;;;4992490;28;20038;-72
2023/06/03 04:57:38;;;;;;;7.43;2.30;;;;;;;;;;4992206;28;20114;-72
2023/06/03 05:00:06;;;;;;;6.68;2.25;;;;;;;;;;4991387;28;20077;-72
2023/06/03 05:02:32;;;;;;;8.30;2.85;;;;;;;;;;4992024;28;20505;-73
2023/06/03 05:04:57;;;;;;;12.00;2.85;;;;;;;;;;4997492;28;20046;-72
2023/06/03 05:07:24;;;;;;;5.13;2.10;;;;;;;;;;4997354;28;20035;-72
2023/06/03 05:09:50;;;;;;;3.92;1.70;;;;;;;;;;4996223;28;20048;-72
2023/06/03 05:12:18;;;;;;;7.70;1.88;;;;;;;;;;4995805;28;20509;-72
2023/06/03 05:14:44;;;;;;;6.50;2.05;;;;;;;;;;4997371;28;20081;-72
2023/06/03 05:17:09;;;;;;;5.03;1.70;;;;;;;;;;4997343;28;20042;-73
2023/06/03 05:19:35;;;;;;;10.40;1.85;;;;;;;;;;4997191;28;20038;-72
2023/06/03 05:22:02;;;;;;;;;;;;;;;;;;4988088;28;20034;-73
2023/06/03 05:24:28;;;;;;;4.80;2.03;;;;;;;;;;4997557;28;19924;-73
2023/06/03 05:26:53;;;;;;;5.80;1.80;;;;;;;;;;4997186;28;20046;-73
2023/06/03 05:29:18;;;;;;;11.05;2.10;;;;;;;;;;4996960;28;20413;-73
2023/06/03 05:31:44;;;;;;;;;;;;;;;;;;4996012;28;20467;-73
2023/06/03 05:34:10;;;;;;;7.88;2.47;;;;;;;;;;4996817;28;20391;-73
2023/06/03 05:36:35;;;;;;;;;;;;;;;;;;4993931;28;20085;-73
2023/06/03 05:39:00;;;;;;;;;;;;;;;;;;4992256;28;20426;-73
2023/06/03 05:41:26;;;;;;;5.70;1.73;;;;;;;;;;4996737;28;20497;-74
2023/06/03 05:43:51;;;;;;;8.07;2.03;;;;;;;;;;4996823;28;20057;-73
2023/06/03 05:46:17;;;;;;;10.95;2.33;;;;;;;;;;4996729;28;20049;-73
2023/06/03 05:48:43;;;;;;;8.18;1.85;;;;;;;;;;4995432;28;20085;-73
2023/06/03 05:51:08;;;;;;;7.72;2.10;;;;;;;;;;4991054;28;20065;-73
2023/06/03 05:53:34;;;;;;;7.35;1.83;;;;;;;;;;4996475;28;20061;-74
2023/06/03 05:55:59;;;;;;;10.18;2.20;;;;;;;;;;4996210;28;20042;-74
2023/06/03 05:58:24;;;;;;;12.32;2.55;;;;;;;;;;4996043;28;20049;-74
2023/06/03 06:00:50;;;;;;;8.93;2.13;;;;;;;;;;4995886;28;20038;-73
2023/06/03 06:03:16;;;;;;;7.95;2.10;;;;;;;;;;4996644;28;20070;-74
2023/06/03 06:05:41;;;;;;;9.10;2.20;;;;;;;;;;4993615;28;20022;-74
2023/06/03 06:08:07;;;;;;;11.00;2.22;;;;;;;;;;4996482;28;20039;-73
2023/06/03 06:10:32;;;;;;;13.05;2.33;;;;;;;;;;4990245;28;20066;-74
2023/06/03 06:12:57;;;;;;;10.45;3.03;;;;;;;;;;4996491;28;20038;-74
2023/06/03 06:15:23;;;;;;;8.38;2.13;;;;;;;;;;4995638;28;20066;-74
2023/06/03 06:17:48;;;;;;;7.47;1.80;;;;;;;;;;4987561;28;20080;-74
2023/06/03 06:20:14;;;;;;;10.35;2.15;;;;;;;;;;4995867;28;20153;-74
2023/06/03 06:22:39;;;;;;;8.65;1.88;;;;;;;;;;4995933;28;20051;-74
2023/06/03 06:25:08;;;;;;;11.30;1.85;;;;;;;;;;4996052;28;20045;-74
2023/06/03 06:27:34;;;;;;;11.70;2.20;;;;;;;;;;4995952;28;20038;-73
2023/06/03 06:30:00;;;;;;;9.52;1.83;;;;;;;;;;4985336;28;20125;-74
2023/06/03 06:32:26;;;;;;;7.90;1.92;;;;;;;;;;4994606;28;20037;-74
2023/06/03 06:34:52;;;;;;;8.07;1.83;;;;;;;;;;4995990;28;20045;-73
2023/06/03 06:37:18;;;;;;;7.47;2.03;;;;;;;;;;4994665;28;20039;-73
2023/06/03 06:40:01;;;;;;;9.45;1.55;;;;;;;;;;4995567;28;20491;-73
2023/06/03 06:42:33;;;;;;;6.25;2.03;;;;;;;;;;4995422;28;20041;-73
2023/06/03 06:45:15;;;;;;;6.63;1.60;;;;;;;;;;4994100;28;20097;-73
2023/06/03 06:47:40;;;;;;;10.07;2.15;;;;;;;;;;4990373;28;20092;-74
2023/06/03 06:50:08;;;;;;;7.85;2.10;;;;;;;;;;4995509;28;20042;-74
2023/06/03 06:52:34;;;;;;;6.70;1.90;;;;;;;;;;4993017;28;20443;-74
2023/06/03 06:55:00;;;;;;;8.57;2.22;;;;;;;;;;4993882;28;20125;-73
2023/06/03 06:57:28;;;;;;;7.50;1.85;;;;;;;;;;4993268;28;20113;-73
2023/06/03 06:59:53;;;;;;;9.77;2.35;;;;;;;;;;4992782;28;20450;-73
2023/06/03 07:02:19;;;;;;;8.05;1.83;;;;;;;;;;4994841;28;20039;-73
2023/06/03 07:04:45;;;;;;;10.80;2.28;;;;;;;;;;4995347;28;20042;-73
2023/06/03 07:07:12;;;;;;;11.55;2.47;;;;;;;;;;4994608;28;20513;-73
2023/06/03 07:09:37;;;;;;;10.05;2.70;;;;;;;;;;4994886;28;20046;-74
2023/06/03 07:12:03;;;;;;;8.15;2.08;;;;;;;;;;5000420;28;20430;-73
2023/06/03 07:14:30;;;;;;;11.25;2.05;;;;;;;;;;4993536;28;20034;-73
2023/06/03 07:16:55;;;;;;;;;;;;;;;;;;5004785;28;20044;-72
2023/06/03 07:19:21;;;;;;;;;;;;;;;;;;4997309;28;20000;-72
2023/06/03 07:21:46;;;;;;;;;;;;;;;;;;4994823;28;20111;-73
2023/06/03 07:24:11;;;;;;;;;;;;;;;;;;4992390;28;19921;-73
2023/06/03 07:26:37;;;;;;;;;;;;;;;;;;4992697;28;20305;-73
2023/06/03 07:29:02;;;;;;;;;;;;;;;;;;4992597;28;24063;-73
2023/06/03 07:31:29;;;;;;;;;;;;;;;;;;4992644;28;20058;-74
2023/06/03 07:33:55;;;;;;;;;;;;;;;;;;4992625;28;19932;-73
2023/06/03 07:36:21;;;;;;;3.83;1.55;;;;;;;;;;4994314;28;20051;-74
2023/06/03 07:39:02;;;;;;;9.15;2.22;;;;;;;;;;4993625;28;20030;-74
2023/06/03 07:41:41;;;;;;;6.75;2.00;;;;;;;;;;4993431;28;20034;-74
2023/06/03 07:44:08;;;;;;;6.38;1.88;;;;;;;;;;4994622;28;20112;-73
2023/06/03 07:46:42;;;;;;;8.60;2.22;;;;;;;;;;4994713;28;20038;-73
2023/06/03 07:49:09;;;;;;;9.35;1.88;;;;;;;;;;4994621;28;20053;-73
2023/06/03 07:51:35;;;;;;;10.05;2.33;;;;;;;;;;4994253;28;20046;-73
2023/06/03 07:54:02;;;;;;;7.95;2.38;;;;;;;;;;4994357;28;20030;-73
2023/06/03 07:56:28;;;;;;;7.57;2.05;;;;;;;;;;4993714;28;20034;-74
2023/06/03 07:58:54;;;;;;;7.00;2.05;;;;;;;;;;4994117;28;20360;-74
2023/06/03 08:01:23;;;;;;;6.78;1.95;;;;;;;;;;4992604;28;20108;-74
2023/06/03 08:03:49;;;;;;;9.63;2.10;;;;;;;;;;4994119;28;20097;-74
2023/06/03 08:06:14;;;;;;;7.97;2.50;;;;;;;;;;4992960;28;20042;-74
2023/06/03 08:08:40;;;;;;;6.85;2.22;;;;;;;;;;4994553;28;20060;-74
2023/06/03 08:11:07;;;;;;;7.05;2.08;;;;;;;;;;4993055;28;20096;-74
2023/06/03 08:13:32;;;;;;;10.68;2.25;;;;;;;;;;4994075;28;20077;-74
2023/06/03 08:16:00;;;;;;;6.00;1.95;;;;;;;;;;4993908;28;20069;-72
2023/06/03 08:18:43;;;;;;;8.85;2.05;;;;;;;;;;4993851;28;20121;-72
2023/06/03 08:21:08;;;;;;;5.43;1.90;;;;;;;;;;4987071;28;20537;-72
2023/06/03 08:23:34;;;;;;;4.95;1.80;;;;;;;;;;4992914;28;20049;-72
2023/06/03 08:26:00;;;;;;;6.32;1.70;;;;;;;;;;4993292;28;20042;-72
2023/06/03 08:28:26;;;;;;;7.43;2.08;;;;;;;;;;4992609;28;20034;-72
2023/06/03 08:30:53;;;;;;;10.90;2.70;;;;;;;;;;4992268;28;20446;-72
2023/06/03 08:33:18;;;;;;;7.32;2.10;;;;;;;;;;4991339;28;20129;-75
2023/06/03 08:35:44;;;;;;;8.60;1.80;;;;;;;;;;4993255;28;20459;-74
2023/06/03 08:38:10;;;;;;;6.55;2.10;;;;;;;;;;4993416;28;20121;-74
2023/06/03 08:40:40;;;;;;;8.90;2.33;;;;;;;;;;4992505;28;20074;-74
2023/06/03 08:43:06;;;;;;;4.97;1.80;;;;;;;;;;4987185;28;20030;-75
2023/06/03 08:45:38;;;;;;;6.03;1.95;;;;;;;;;;4993593;28;20046;-74
2023/06/03 08:48:45;;;;;;;3.55;1.73;;;;;;;;;;4981137;28;20073;-74
2023/06/03 08:51:14;;;;;;;6.45;2.17;;;;;;;;;;4997185;28;20046;-74
2023/06/03 08:53:49;;;;;;;6.15;1.73;;;;;;;;;;4992464;28;20038;-74
2023/06/03 08:56:19;;;;;;;5.88;1.88;;;;;;;;;;4992912;28;20568;-74
2023/06/03 08:58:52;;;;;;;5.95;2.30;;;;;;;;;;4991673;28;20438;-74
2023/06/03 09:01:19;;;;;;;7.25;2.28;;;;;;;;;;4991998;28;20038;-74
2023/06/03 09:03:45;;;;;;;6.60;2.20;;;;;;;;;;4989887;28;20030;-74
2023/06/03 09:06:11;;;;;;;6.80;1.95;;;;;;;;;;4985632;28;20034;-75
2023/06/03 09:08:37;;;;;;;6.00;1.90;;;;;;;;;;4991905;28;20475;-74
2023/06/03 09:11:03;;;;;;;5.40;2.00;;;;;;;;;;4991291;28;20034;-74
2023/06/03 09:13:30;;;;;;;6.78;1.80;;;;;;;;;;4986451;28;20494;-74
2023/06/03 09:15:56;;;;;;;5.78;2.08;;;;;;;;;;4991773;28;21491;-74
2023/06/03 09:18:22;;;;;;;5.40;1.80;;;;;;;;;;4993039;28;20038;-74
2023/06/03 09:20:47;;;;;;;5.35;1.85;;;;;;;;;;4990614;28;20046;-71
2023/06/03 09:23:12;;;;;;;7.43;2.10;;;;;;;;;;4991342;28;20095;-72
2023/06/03 09:25:38;;;;;;;5.10;1.92;;;;;;;;;;4992800;28;20038;-72
2023/06/03 09:28:03;;;;;;;8.82;1.70;;;;;;;;;;4993224;28;20030;-72
2023/06/03 09:30:33;;;;;;;6.03;1.90;;;;;;;;;;4990234;28;20042;-72
2023/06/03 09:32:58;;;;;;;6.28;1.60;;;;;;;;;;4993030;28;20038;-74
2023/06/03 09:35:24;;;;;;;4.57;1.88;;;;;;;;;;4990693;28;20089;-74
2023/06/03 09:38:00;;;;;;;5.22;1.83;;;;;;;;;;4991462;28;20041;-74
2023/06/03 09:40:30;;;;;;;7.70;2.13;;;;;;;;;;4989471;28;20491;-74
2023/06/03 09:42:55;;;;;;;5.65;1.65;;;;;;;;;;4988644;28;20096;-73
2023/06/03 09:45:23;;;;;;;6.70;1.73;;;;;;;;;;4992342;28;20054;-74
2023/06/03 09:47:49;;;;;;;8.65;1.95;;;;;;;;;;4991867;28;20054;-71
2023/06/03 09:50:15;;;;;;;4.43;1.75;;;;;;;;;;4994518;28;20077;-71
2023/06/03 09:52:40;;;;;;;8.80;2.03;;;;;;;;;;4996698;28;20062;-71
2023/06/03 09:55:07;;;;;;;5.40;1.90;;;;;;;;;;4996830;28;20092;-71
2023/06/03 09:57:33;;;;;;;6.43;1.88;;;;;;;;;;4995222;28;20041;-71
2023/06/03 10:00:12;;;;;;;5.75;1.90;;;;;;;;;;4986616;28;20285;-71
2023/06/03 10:02:39;;;;;;;6.47;2.03;;;;;;;;;;4995982;28;20483;-71
2023/06/03 10:05:27;;;;;;;5.68;2.00;;;;;;;;;;4995408;28;20039;-71
2023/06/03 10:07:52;;;;;;;4.57;1.67;;;;;;;;;;4996401;28;20034;-73
2023/06/03 10:10:18;;;;;;;7.97;1.77;;;;;;;;;;4996590;28;20493;-73
2023/06/03 10:12:45;;;;;;;7.22;1.90;;;;;;;;;;4995126;28;20575;-73
2023/06/03 10:15:10;;;;;;;5.95;1.80;;;;;;;;;;4996384;28;20072;-73
2023/06/03 10:17:44;;;;;;;11.70;2.33;;;;;;;;;;4995741;28;20034;-74
2023/06/03 10:20:10;;;;;;;5.63;1.92;;;;;;;;;;4995915;28;20491;-74
2023/06/03 10:22:35;;;;;;;6.75;1.88;;;;;;;;;;4993605;28;20031;-74
2023/06/03 10:25:02;;;;;;;7.15;1.75;;;;;;;;;;4995861;28;20483;-73
2023/06/03 10:27:28;;;;;;;8.23;1.90;;;;;;;;;;4995070;28;20510;-74
2023/06/03 10:29:53;;;;;;;4.55;1.60;;;;;;;;;;4994807;28;20050;-73
2023/06/03 10:32:20;;;;;;;4.55;1.75;;;;;;;;;;4996142;28;20049;-74
2023/06/03 10:34:47;;;;;;;9.02;1.90;;;;;;;;;;4996031;28;20049;-74
2023/06/03 10:37:14;;;;;;;9.93;2.20;;;;;;;;;;4995642;28;20116;-73
2023/06/03 10:39:42;;;;;;;3.85;1.58;;;;;;;;;;4996381;28;20034;-73
2023/06/03 10:42:09;;;;;;;4.35;2.00;;;;;;;;;;4994697;28;20073;-73
2023/06/03 10:44:35;;;;;;;7.35;1.80;;;;;;;;;;4994507;28;20093;-73
2023/06/03 10:47:33;;;;;;;5.75;1.60;;;;;;;;;;4994782;28;20030;-73
2023/06/03 10:50:11;;;;;;;7.30;1.60;;;;;;;;;;4988695;28;20058;-73
2023/06/03 10:52:48;;;;;;;5.10;1.60;;;;;;;;;;4989248;28;20372;-73
2023/06/03 10:55:37;;;;;;;8.38;1.40;;;;;;;;;;4990639;28;20034;-73
2023/06/03 10:58:15;;;;;;;6.15;1.40;;;;;;;;;;4990871;28;20042;-73
2023/06/03 11:00:53;;;;;;;7.43;1.75;;;;;;;;;;4993012;28;20513;-73
2023/06/03 11:03:21;;;;;;;4.07;1.40;;;;;;;;;;4995354;28;20080;-72
2023/06/03 11:05:47;;;;;;;4.35;1.40;;;;;;;;;;4994432;28;20070;-73
2023/06/03 11:08:12;;;;;;;10.27;2.00;;;;;;;;;;4995216;28;20038;-73
2023/06/03 11:10:42;;;;;;;3.80;1.45;;;;;;;;;;4994379;28;20038;-73
2023/06/03 11:13:10;;;;;;;4.57;1.40;;;;;;;;;;4993764;28;20050;-73
2023/06/03 11:15:59;;;;;;;7.40;1.75;;;;;;;;;;4993812;28;20532;-73
2023/06/03 11:18:26;;;;;;;5.22;1.88;;;;;;;;;;4993973;28;20386;-73
2023/06/03 11:20:51;;;;;;;7.40;1.60;;;;;;;;;;4993981;28;20046;-73
2023/06/03 11:23:45;;;;;;;4.32;1.45;;;;;;;;;;4993889;28;20463;-73
2023/06/03 11:26:38;;;;;;;7.68;1.70;;;;;;;;;;4985386;28;20105;-73
2023/06/03 11:29:05;;;;;;;10.52;1.92;;;;;;;;;;4994690;28;20083;-73
2023/06/03 11:31:31;;;;;;;3.72;1.33;;;;;;;;;;4993912;28;20049;-72
2023/06/03 11:34:18;;;;;;;4.82;1.48;;;;;;;;;;4994863;28;20030;-72
2023/06/03 11:36:53;;;;;;;5.03;1.20;;;;;;;;;;4994819;28;20109;-72
2023/06/03 11:39:20;;;;;;;5.45;1.45;;;;;;;;;;4986611;28;20121;-72
2023/06/03 11:42:08;;;;;;;4.82;1.30;;;;;;;;;;4994387;28;20445;-72
2023/06/03 11:44:34;;;;;;;7.50;1.60;;;;;;;;;;4993522;28;20061;-73
2023/06/03 11:46:59;;;;;;;4.93;1.35;;;;;;;;;;4994757;28;20046;-72
2023/06/03 11:49:24;;;;;;;4.40;1.45;;;;;;;;;;4994774;28;20105;-73
2023/06/03 11:51:52;;;;;;;3.40;1.50;;;;;;;;;;4993072;28;20033;-72
2023/06/03 11:54:20;;;;;;;4.97;1.40;;;;;;;;;;4977262;28;20066;-72
2023/06/03 11:56:46;;;;;;;8.15;2.45;;;;;;;;;;4993298;28;20030;-72
2023/06/03 11:59:12;;;;;;;5.15;1.30;;;;;;;;;;4994677;28;20050;-73
2023/06/03 12:01:53;;;;;;;5.30;1.65;;;;;;;;;;4993175;28;20038;-72
2023/06/03 12:04:19;;;;;;;4.63;1.20;;;;;;;;;;4994362;28;20034;-72
2023/06/03 12:06:45;;;;;;;2.90;1.48;;;;;;;;;;4992895;28;20069;-73
2023/06/03 12:09:16;;;;;;;6.88;1.60;;;;;;;;;;4994381;28;20467;-72
2023/06/03 12:11:43;;;;;;;5.68;1.52;;;;;;;;;;4994378;28;20034;-72
2023/06/03 12:14:22;;;;;;;7.68;1.50;;;;;;;;;;4994297;28;20145;-73
2023/06/03 12:16:48;;;;;;;7.03;1.35;;;;;;;;;;4992765;28;20080;-72
2023/06/03 12:19:13;;;;;;;4.00;1.30;;;;;;;;;;4993069;28;20463;-72
2023/06/03 12:21:39;;;;;;;2.53;1.25;;;;;;;;;;4994343;28;20034;-72
2023/06/03 12:24:09;;;;;;;7.68;1.42;;;;;;;;;;4992816;28;20029;-72
2023/06/03 12:26:36;;;;;;;8.95;2.03;;;;;;;;;;4992994;28;20038;-73
2023/06/03 12:29:06;;;;;;;5.20;1.65;;;;;;;;;;4992820;28;20109;-72
2023/06/03 12:31:31;;;;;;;4.38;1.70;;;;;;;;;;4991819;28;20486;-72
2023/06/03 12:33:56;;;;;;;3.33;1.70;;;;;;;;;;4993999;28;20125;-73
2023/06/03 12:36:22;;;;;;;4.85;1.67;;;;;;;;;;4993962;28;20022;-72
2023/06/03 12:38:55;;;;;;;5.28;1.50;;;;;;;;;;4992714;28;20042;-73
2023/06/03 12:41:21;;;;;;;6.80;1.60;;;;;;;;;;4994030;28;20038;-72
2023/06/03 12:43:46;;;;;;;5.75;1.50;;;;;;;;;;4993760;28;20038;-73
2023/06/03 12:46:16;;;;;;;6.82;1.40;;;;;;;;;;4993838;28;20367;-73
2023/06/03 12:48:42;;;;;;;5.60;1.35;;;;;;;;;;4992604;28;20031;-73
2023/06/03 12:51:30;;;;;;;12.68;1.90;;;;;;;;;;4992726;28;20451;-73
2023/06/03 12:53:56;;;;;;;4.20;1.52;;;;;;;;;;4981149;28;20390;-73
2023/06/03 12:56:33;;;;;;;8.48;1.70;;;;;;;;;;4992523;28;20030;-73
2023/06/03 12:58:58;;;;;;;5.85;1.35;;;;;;;;;;4993484;28;20085;-72
2023/06/03 13:01:24;;;;;;;6.82;1.67;;;;;;;;;;4992537;28;20058;-72
2023/06/03 13:03:54;;;;;;;3.92;1.30;;;;;;;;;;4992054;28;20069;-72
2023/06/03 13:06:19;;;;;;;6.15;1.40;;;;;;;;;;4993767;28;20038;-72
2023/06/03 13:08:45;;;;;;;8.38;1.23;;;;;;;;;;4994023;28;20085;-73
2023/06/03 13:11:11;;;;;;;7.00;1.40;;;;;;;;;;4993622;28;20561;-72
2023/06/03 13:13:36;;;;;;;3.67;1.30;;;;;;;;;;4992159;28;20038;-73
2023/06/03 13:16:03;;;;;;;9.43;1.38;;;;;;;;;;4992321;28;20038;-72
2023/06/03 13:18:29;;;;;;;4.13;1.70;;;;;;;;;;4993556;28;20046;-73
2023/06/03 13:20:54;;;;;;;4.43;1.42;;;;;;;;;;4991985;28;20049;-73
2023/06/03 13:23:19;;;;;;;3.53;1.15;;;;;;;;;;4993456;28;20034;-72
2023/06/03 13:25:45;;;;;;;4.53;1.30;;;;;;;;;;4997322;28;20038;-73
2023/06/03 13:28:10;;;;;;;2.88;1.40;;;;;;;;;;4997337;28;20038;-73
2023/06/03 13:30:36;;;;;;;5.45;1.40;;;;;;;;;;4997152;28;20385;-73
2023/06/03 13:33:01;;;;;;;3.50;1.30;;;;;;;;;;4997142;28;20395;-73
2023/06/03 13:35:27;;;;;;;4.95;1.48;;;;;;;;;;4995805;28;20092;-73
2023/06/03 13:37:53;;;;;;;3.25;1.30;;;;;;;;;;4997067;28;20065;-73
2023/06/03 13:40:18;;;;;;;7.38;1.65;;;;;;;;;;4995901;28;20042;-73
2023/06/03 13:42:43;;;;;;;3.22;1.33;;;;;;;;;;4995772;28;20093;-73
2023/06/03 13:45:10;;;;;;;7.55;1.60;;;;;;;;;;4996852;28;20038;-72
2023/06/03 13:47:36;;;;;;;10.90;1.70;;;;;;;;;;4992605;28;20049;-73
2023/06/03 13:50:02;;;;;;;4.40;1.42;;;;;;;;;;4996551;28;20495;-73
2023/06/03 13:52:28;;;;;;;7.22;1.50;;;;;;;;;;4996968;28;20106;-73
2023/06/03 13:54:53;;;;;;;4.07;1.20;;;;;;;;;;4996710;28;20046;-73
2023/06/03 13:57:18;;;;;;;5.20;1.92;;;;;;;;;;4996837;28;20050;-73
2023/06/03 13:59:44;;;;;;;3.58;1.40;;;;;;;;;;4995883;28;20080;-73
2023/06/03 14:02:12;;;;;;;5.88;1.45;;;;;;;;;;4996587;28;20042;-73
2023/06/03 14:04:37;;;;;;;3.40;1.48;;;;;;;;;;4995252;28;20490;-73
2023/06/03 14:07:03;;;;;;;5.32;1.58;;;;;;;;;;4996222;28;20054;-72
2023/06/03 14:09:28;;;;;;;7.90;1.52;;;;;;;;;;4996588;28;20121;-73
2023/06/03 14:11:54;;;;;;;3.72;1.17;;;;;;;;;;4995452;28;20133;-73
2023/06/03 14:14:20;;;;;;;3.58;1.60;;;;;;;;;;4996301;28;20053;-73
2023/06/03 14:16:45;;;;;;;4.00;1.20;;;;;;;;;;4996541;28;20048;-72
2023/06/03 14:19:10;;;;;;;6.78;1.30;;;;;;;;;;4996489;28;20488;-73
2023/06/03 14:21:36;;;;;;;5.70;1.52;;;;;;;;;;4995242;28;20379;-72
2023/06/03 14:24:01;;;;;;;6.60;1.35;;;;;;;;;;4991883;28;20130;-72
2023/06/03 14:26:26;;;;;;;9.25;1.85;;;;;;;;;;4996414;28;20038;-73
2023/06/03 14:28:52;;;;;;;5.85;1.77;;;;;;;;;;4995947;28;20475;-73
2023/06/03 14:31:17;;;;;;;3.88;1.20;;;;;;;;;;4996133;28;20090;-73
2023/06/03 14:33:43;;;;;;;4.88;1.45;;;;;;;;;;4996288;28;20049;-73
2023/06/03 14:36:09;;;;;;;4.40;1.95;;;;;;;;;;4995841;28;20208;-73
2023/06/03 14:38:34;;;;;;;5.60;1.60;;;;;;;;;;4993877;28;20053;-73
2023/06/03 14:41:01;;;;;;;4.68;1.45;;;;;;;;;;4995869;28;20080;-72
2023/06/03 14:43:26;;;;;;;4.95;1.58;;;;;;;;;;4995808;28;20383;-73
2023/06/03 14:45:52;;;;;;;6.85;2.30;;;;;;;;;;4995966;28;20052;-73